Terminal Aerodrome Forecast
Issued by NWS Twin Cities, MN

Home | Current Version | Previous Version | Text Only | Print | Product List | Glossary On
Versions: 1 2 3 4 5 6 7 8 9 10 11 12 13 14 15 16 17 18 19
000
FTUS43 KMPX 250536
TAFEAU
TAF
KEAU 250536Z 2506/2606 33010KT P6SM SCT035 BKN150
      TEMPO 2506/2507 5SM -SN
     FM251100 30012KT P6SM SKC
     FM260000 22006KT P6SM BKN070=

USA.gov is the U.S. government's official web portal to all federal, state and local government web resources and services.